Αρχική σελίδα
METAR-TAF:

METAR-TAF

Αεροδρόμια :

Γκραν Κανάρια, Ισπανία

γεωγραφικό πλάτος: 27-56N, γεωγραφικό μήκος: 015-23W, υψόμετρο: 23 μ

Παρών καιρός

Η αναφορά έγινε 20 λεπτά πριν, στις 05:00 UTC
Άνεμος 14 kt από Β
Θερμοκρασία 24°C
Υγρασία 61%
Πίεση 1016 hPa
Ορατότητα 10 χλμ και άνω
Λίγα νέφη σε ύψος 2000 πόδια

METAR: GCLP 230500Z 01014KT 9999 FEW020 24/16 Q1016 NOSIG

Χρόνος: 06:20 (05:20 UTC)

Πρόγνωση Καιρού

Η αναφορά έγινε 3 ώρες και 20 λεπτά πριν, στις 02:00 UTC
Η πρόγνωση ισχύει από τις 23 στις 03 UTC έως τις 24 στις 03 UTC
Άνεμος 20 kt από Β
Ορατότητα 10 χλμ και άνω
Λίγα νέφη σε ύψος 2000 πόδια

TAF: GCLP 230200Z 2303/2403 36020KT 9999 FEW020 TX31/2314Z TN23/2305Z

Μετεωρολογικές αναφορές και προγνώσεις για περισσότερα από 4000 αεροδρόμια (δελτία METAR και TAF).

Οι διαθέσιμοι σταθμοί απεικονίζονται στο χάρτη με κίτρινες και κόκκινες κουκκίδες.

Μετακινήστε το ποντίκι πάνω από τις κουκκίδες για να δείτε το όνομα του σταθμού.

Στη συνέχεια, κάντε κλικ για να δείτε τις μετεωρολογικές αναφορές και τις προγνώσεις καιρού.

Για να αλλάξετε το χάρτη: κάντε κλικ στα πράσινα κουμπιά με τον μαύρο σταυρό για να ζουμάρετε, στο πράσινο κουμπί με την παύλα για να αφαιρέσετε το ζουμ ή στα πράσινα βέλη για να αντιπαραβάλλετε χάρτες.


METAR-TAF: